Time;durP1;ratioP1;P1;durP2;ratioP2;P2;SDS_P1;SDS_P2;PMS_P1;PMS_P2;Temp;Humidity;BMP_temperature;BMP_pressure;BME280_temperature;BME280_humidity;BME280_pressure;Samples;Min_cycle;Max_cycle;Signal;HPM_P1;HPM_P2
2023/12/29 15:21:17;;;;;;;4.60;2.75;;;;;;;6.02;100.00;92875.56;5067884;27;20379;-77
2023/12/29 15:23:42;;;;;;;3.90;2.65;;;;;;;6.04;100.00;92870.91;5067198;28;20055;-77
2023/12/29 15:26:08;;;;;;;3.80;2.45;;;;;;;6.04;100.00;92873.50;5068306;28;20300;-77
2023/12/29 15:28:33;;;;;;;5.38;2.70;;;;;;;6.04;100.00;92863.09;5068278;28;20514;-77
2023/12/29 15:31:25;;;;;;;4.65;2.67;;;;;;;6.04;100.00;92868.31;5068244;28;20029;-77
2023/12/29 15:33:52;;;;;;;3.90;2.53;;;;;;;6.01;100.00;92861.00;5067158;28;20114;-77
2023/12/29 15:36:27;;;;;;;3.47;2.20;;;;;;;6.03;100.00;92869.34;5066040;28;20054;-77
2023/12/29 15:38:52;;;;;;;4.90;2.60;;;;;;;6.04;100.00;92868.31;5057129;28;20064;-78
2023/12/29 15:41:18;;;;;;;5.25;3.00;;;;;;;6.08;100.00;92867.78;5049169;28;20096;-78
2023/12/29 15:43:45;;;;;;;5.10;3.05;;;;;;;6.04;100.00;92862.31;5046234;28;20041;-77
2023/12/29 15:46:18;;;;;;;6.20;3.28;;;;;;;6.02;100.00;92875.56;5044542;28;20029;-77
2023/12/29 15:48:44;;;;;;;6.07;3.70;;;;;;;6.03;100.00;92871.13;5044322;28;20041;-77
2023/12/29 15:51:11;;;;;;;5.78;2.83;;;;;;;5.99;100.00;92870.88;5045552;28;20033;-77
2023/12/29 15:53:36;;;;;;;4.75;2.97;;;;;;;5.96;100.00;92871.34;5045376;28;20033;-77
2023/12/29 15:56:04;;;;;;;4.93;3.20;;;;;;;5.97;100.00;92870.31;5045322;28;20397;-77
2023/12/29 15:58:29;;;;;;;5.53;3.50;;;;;;;5.96;100.00;92868.75;5045526;28;20041;-77
2023/12/29 16:00:55;;;;;;;5.32;3.60;;;;;;;5.95;100.00;92867.19;5065064;28;20039;-77
2023/12/29 16:03:20;;;;;;;6.28;3.70;;;;;;;5.93;100.00;92865.84;5047224;28;20063;-77
2023/12/29 16:05:46;;;;;;;5.43;3.55;;;;;;;5.94;100.00;92864.81;5065078;28;20096;-77
2023/12/29 16:08:11;;;;;;;6.28;3.10;;;;;;;5.95;100.00;92864.59;5047775;28;20037;-77
2023/12/29 16:10:37;;;;;;;9.63;4.20;;;;;;;5.95;100.00;92859.41;5045466;28;20033;-78
2023/12/29 16:13:03;;;;;;;10.82;5.10;;;;;;;5.93;100.00;92864.03;5051448;28;20033;-77
2023/12/29 16:15:30;;;;;;;12.15;4.30;;;;;;;5.89;100.00;92860.34;5062270;28;20051;-77
2023/12/29 16:17:55;;;;;;;5.72;3.20;;;;;;;5.93;100.00;92865.84;5057495;28;20469;-77
2023/12/29 16:20:21;;;;;;;4.88;2.70;;;;;;;5.89;100.00;92859.56;5062174;28;20122;-77
2023/12/29 16:22:47;;;;;;;4.63;3.05;;;;;;;5.86;100.00;92865.28;5063487;28;20033;-77
2023/12/29 16:25:13;;;;;;;6.70;3.13;;;;;;;5.83;100.00;92861.31;5064991;28;20418;-78
2023/12/29 16:27:43;;;;;;;6.65;3.03;;;;;;;5.81;100.00;92863.41;5064884;28;20082;-77
2023/12/29 16:30:09;;;;;;;8.80;3.10;;;;;;;5.80;100.00;92857.41;5064490;28;20029;-77
2023/12/29 16:32:34;;;;;;;5.72;2.90;;;;;;;5.79;100.00;92861.06;5050135;28;20039;-77
2023/12/29 16:35:00;;;;;;;4.15;2.63;;;;;;;5.80;100.00;92856.63;5044283;28;20363;-77
2023/12/29 16:37:27;;;;;;;6.53;3.20;;;;;;;5.81;100.00;92855.63;5031051;28;20503;-77
2023/12/29 16:39:53;;;;;;;5.10;3.28;;;;;;;5.80;100.00;92856.63;5031250;28;20083;-77
2023/12/29 16:42:20;;;;;;;10.77;3.50;;;;;;;5.71;100.00;92843.31;5031131;28;20025;-77
2023/12/29 16:44:46;;;;;;;5.65;3.22;;;;;;;5.77;100.00;92857.13;5044164;28;20041;-77
2023/12/29 16:47:12;;;;;;;5.10;3.00;;;;;;;5.77;100.00;92851.94;5069667;28;20098;-77
2023/12/29 16:49:37;;;;;;;6.07;3.40;;;;;;;5.74;100.00;92847.22;5052944;28;20063;-77
2023/12/29 16:52:05;;;;;;;4.85;2.92;;;;;;;5.72;100.00;92854.47;5063836;28;20453;-77
2023/12/29 16:54:33;;;;;;;6.45;2.88;;;;;;;5.70;100.00;92857.34;5053028;28;20036;-79
2023/12/29 16:57:03;;;;;;;4.70;2.90;;;;;;;5.73;100.00;92859.44;5034142;28;20121;-81
2023/12/29 16:59:29;;;;;;;6.78;3.10;;;;;;;5.72;100.00;92850.09;5040767;28;20056;-80
2023/12/29 17:01:55;;;;;;;4.28;2.60;;;;;;;5.72;100.00;92852.69;5040780;28;20044;-80
2023/12/29 17:04:23;;;;;;;4.95;2.80;;;;;;;5.71;100.00;92855.53;5043864;28;20160;-81
2023/12/29 17:06:49;;;;;;;6.28;2.95;;;;;;;5.71;100.00;92858.13;5044575;28;20605;-80
2023/12/29 17:09:17;;;;;;;4.10;2.60;;;;;;;5.72;100.00;92859.66;5036873;28;20487;-79
2023/12/29 17:11:44;;;;;;;5.72;3.38;;;;;;;5.72;100.00;92857.88;5024115;28;20064;-80
2023/12/29 17:14:10;;;;;;;6.15;2.70;;;;;;;5.75;100.00;92854.00;5051325;28;20404;-79
2023/12/29 17:16:40;;;;;;;4.47;2.30;;;;;;;5.80;100.00;92851.44;5040689;28;20112;-79
2023/12/29 17:19:05;;;;;;;4.45;2.05;;;;;;;5.82;100.00;92860.56;5041346;28;20111;-79
2023/12/29 17:21:31;;;;;;;3.35;1.90;;;;;;;5.91;100.00;92847.91;5033705;28;20037;-79
2023/12/29 17:23:57;;;;;;;3.72;1.98;;;;;;;5.93;100.00;92853.63;5048975;28;20110;-80
2023/12/29 17:26:22;;;;;;;5.35;2.55;;;;;;;6.17;100.00;92855.91;5035451;28;20040;-79
2023/12/29 17:28:50;;;;;;;7.28;3.80;;;;;;;6.02;100.00;92859.19;5051645;28;20036;-79
2023/12/29 17:31:16;;;;;;;5.63;3.72;;;;;;;5.81;100.00;92864.19;5052108;28;20399;-79
2023/12/29 17:33:43;;;;;;;6.70;3.85;;;;;;;5.71;100.00;92865.91;5052760;28;20044;-79
2023/12/29 17:36:10;;;;;;;6.75;3.70;;;;;;;5.68;100.00;92864.59;5043502;28;20076;-80
2023/12/29 17:38:36;;;;;;;5.22;3.40;;;;;;;5.63;100.00;92859.34;5032385;28;20098;-79
2023/12/29 17:41:03;;;;;;;5.93;3.58;;;;;;;5.58;100.00;92854.91;5032463;28;20119;-80
2023/12/29 17:43:30;;;;;;;8.93;3.10;;;;;;;5.56;100.00;92856.97;5038743;28;20402;-79
2023/12/29 17:45:56;;;;;;;6.95;3.38;;;;;;;5.52;100.00;92850.69;5050586;28;20404;-79
2023/12/29 17:48:21;;;;;;;6.20;4.03;;;;;;;5.53;100.00;92857.44;5035613;28;20041;-79
2023/12/29 17:50:47;;;;;;;6.22;4.22;;;;;;;5.52;100.00;92842.91;5039042;28;20025;-79
2023/12/29 17:53:12;;;;;;;6.28;3.70;;;;;;;5.52;100.00;92853.28;5044504;28;20044;-79
2023/12/29 17:55:38;;;;;;;5.32;3.60;;;;;;;5.53;100.00;92849.66;5052533;28;20128;-79
2023/12/29 17:58:04;;;;;;;8.52;4.38;;;;;;;5.55;100.00;92841.63;5052063;28;20051;-80
2023/12/29 18:00:30;;;;;;;5.97;3.22;;;;;;;5.58;100.00;92848.91;5042453;28;20516;-80
2023/12/29 18:02:55;;;;;;;5.88;4.05;;;;;;;5.61;100.00;92840.63;5049180;28;20064;-79
2023/12/29 18:05:21;;;;;;;6.97;4.47;;;;;;;5.62;100.00;92842.97;5051556;28;20024;-80
2023/12/29 18:07:47;;;;;;;5.70;3.70;;;;;;;5.64;100.00;92843.50;5050294;28;20048;-78
2023/12/29 18:10:12;;;;;;;4.80;3.33;;;;;;;5.65;100.00;92839.09;5059894;28;20392;-78
2023/12/29 18:12:38;;;;;;;6.78;3.97;;;;;;;5.67;100.00;92846.66;5050081;28;20120;-79
2023/12/29 18:15:04;;;;;;;5.32;3.25;;;;;;;5.62;100.00;92844.78;5013631;28;20037;-79
2023/12/29 18:17:33;;;;;;;6.28;3.60;;;;;;;5.68;100.00;92848.22;5041968;28;20079;-79
2023/12/29 18:19:58;;;;;;;6.43;3.30;;;;;;;5.90;100.00;92835.94;5049092;28;20045;-79
2023/12/29 18:22:24;;;;;;;5.55;3.40;;;;;;;5.73;100.00;92856.06;5042430;28;20394;-79
2023/12/29 18:24:49;;;;;;;6.25;3.67;;;;;;;5.72;100.00;92852.69;5029435;28;20064;-79
2023/12/29 18:27:15;;;;;;;10.00;5.75;;;;;;;5.61;100.00;92849.22;5047228;28;20036;-80
2023/12/29 18:29:41;;;;;;;7.95;4.85;;;;;;;5.56;100.00;92851.78;5043075;28;20439;-79
2023/12/29 18:32:07;;;;;;;7.60;3.58;;;;;;;5.52;100.00;92858.47;5044204;28;20053;-77
2023/12/29 18:34:32;;;;;;;5.57;3.17;;;;;;;5.52;100.00;92861.06;5039269;28;20438;-78
2023/12/29 18:36:58;;;;;;;5.45;3.08;;;;;;;5.54;100.00;92861.63;5027746;28;20111;-78
2023/12/29 18:39:23;;;;;;;4.97;3.08;;;;;;;5.55;100.00;92854.59;5035261;28;20029;-78
2023/12/29 18:41:49;;;;;;;6.70;3.67;;;;;;;5.60;100.00;92859.84;5029585;28;20099;-78
2023/12/29 18:44:14;;;;;;;7.05;4.32;;;;;;;5.60;100.00;92857.22;5033422;28;20039;-78
2023/12/29 18:46:40;;;;;;;5.97;4.40;;;;;;;5.61;100.00;92862.19;5049074;28;20041;-78
2023/12/29 18:49:06;;;;;;;5.57;3.78;;;;;;;5.61;100.00;92859.59;5047144;28;20440;-78
2023/12/29 18:51:32;;;;;;;6.78;3.47;;;;;;;5.61;100.00;92857.00;5037506;28;20029;-78
2023/12/29 18:53:57;;;;;;;5.47;3.45;;;;;;;5.62;100.00;92860.38;5030578;28;20124;-78
2023/12/29 18:56:23;;;;;;;6.50;3.70;;;;;;;5.59;100.00;92853.84;5031246;28;20051;-78
2023/12/29 18:58:50;;;;;;;5.20;3.35;;;;;;;5.59;100.00;92850.50;5030284;28;20029;-78
2023/12/29 19:01:17;;;;;;;5.18;3.03;;;;;;;5.58;100.00;92854.09;5029744;28;20045;-78
2023/12/29 19:03:43;;;;;;;6.97;3.40;;;;;;;5.56;100.00;92851.78;5020163;28;20025;-78
2023/12/29 19:06:09;;;;;;;5.18;3.15;;;;;;;5.55;100.00;92849.41;5050967;28;20072;-78
2023/12/29 19:08:34;;;;;;;6.93;3.20;;;;;;;5.53;100.00;92852.25;5049373;28;20021;-78
2023/12/29 19:11:00;;;;;;;4.68;2.95;;;;;;;5.52;100.00;92850.69;5044882;28;20034;-78
2023/12/29 19:13:26;;;;;;;5.75;2.80;;;;;;;5.51;100.00;92854.28;5045082;28;20036;-78
2023/12/29 19:15:52;;;;;;;5.45;3.17;;;;;;;5.50;100.00;92851.97;5034966;28;20033;-78
2023/12/29 19:18:18;;;;;;;4.10;2.78;;;;;;;5.52;100.00;92853.28;5013994;28;20039;-78
2023/12/29 19:20:44;;;;;;;5.25;3.00;;;;;;;5.52;100.00;92852.50;5043565;28;20049;-78
2023/12/29 19:23:09;;;;;;;8.73;4.75;;;;;;;5.49;100.00;92850.38;5032717;28;20086;-78
2023/12/29 19:25:35;;;;;;;4.35;2.70;;;;;;;5.47;100.00;92852.44;5044765;28;20488;-76
2023/12/29 19:28:01;;;;;;;16.48;7.78;;;;;;;5.45;100.00;92852.69;5035619;28;20061;-77
2023/12/29 19:30:27;;;;;;;23.23;13.00;;;;;;;5.46;100.00;92856.84;5037352;28;20562;-77
2023/12/29 19:32:54;;;;;;;30.73;14.57;;;;;;;5.48;100.00;92857.41;5029359;28;20041;-77
2023/12/29 19:35:20;;;;;;;16.42;8.15;;;;;;;5.49;100.00;92845.97;5043534;28;20409;-77
2023/12/29 19:37:45;;;;;;;7.43;4.28;;;;;;;5.49;100.00;92848.56;5035376;28;20025;-77
2023/12/29 19:40:12;;;;;;;9.27;5.28;;;;;;;5.50;100.00;92847.53;5038071;28;20060;-77
2023/12/29 19:42:37;;;;;;;10.95;6.82;;;;;;;5.49;100.00;92842.59;5034269;28;20032;-77
2023/12/29 19:45:05;;;;;;;9.45;3.78;;;;;;;5.51;100.00;92843.13;5035007;28;20496;-77
2023/12/29 19:47:30;;;;;;;5.50;3.00;;;;;;;5.50;100.00;92844.94;5037750;28;20572;-77
2023/12/29 19:49:56;;;;;;;4.32;2.80;;;;;;;5.50;100.00;92839.75;5036006;28;20036;-77
2023/12/29 19:52:24;;;;;;;4.95;2.30;;;;;;;5.51;100.00;92848.31;5033882;28;20515;-78
2023/12/29 19:54:52;;;;;;;5.57;2.70;;;;;;;5.52;100.00;92848.09;5038523;28;20507;-77
2023/12/29 19:57:18;;;;;;;8.35;3.15;;;;;;;5.52;100.00;92850.69;5040600;28;20043;-76
2023/12/29 19:59:47;;;;;;;6.28;2.80;;;;;;;5.51;100.00;92846.50;5033932;28;20516;-77
2023/12/29 20:02:13;;;;;;;7.43;3.15;;;;;;;5.50;100.00;92847.53;5042885;28;20033;-77
2023/12/29 20:04:41;;;;;;;8.35;3.70;;;;;;;5.48;100.00;92846.22;5040698;28;20045;-77
2023/12/29 20:07:06;;;;;;;7.38;4.35;;;;;;;5.48;100.00;92846.22;5051048;28;20033;-77
2023/12/29 20:09:32;;;;;;;7.57;3.80;;;;;;;5.45;100.00;92849.28;5046870;28;20037;-77
2023/12/29 20:11:58;;;;;;;6.68;3.78;;;;;;;5.45;100.00;92850.09;5037294;28;20069;-77
2023/12/29 20:14:23;;;;;;;7.72;3.88;;;;;;;5.45;100.00;92846.69;5041535;28;20249;-77
2023/12/29 20:16:49;;;;;;;6.90;3.35;;;;;;;5.43;100.00;92846.97;5041112;28;20041;-78
2023/12/29 20:19:15;;;;;;;5.95;3.25;;;;;;;5.40;100.00;92837.06;5033709;28;20396;-77
2023/12/29 20:21:42;;;;;;;7.10;3.22;;;;;;;5.43;100.00;92852.16;5041947;28;20038;-77
2023/12/29 20:24:09;;;;;;;5.43;3.00;;;;;;;5.41;100.00;92844.59;5032016;28;20045;-77
2023/12/29 20:26:35;;;;;;;4.70;2.90;;;;;;;5.38;100.00;92846.91;5045776;28;20036;-77
2023/12/29 20:29:01;;;;;;;6.20;3.05;;;;;;;5.39;100.00;92851.06;5041594;28;20048;-77
2023/12/29 20:31:28;;;;;;;4.70;2.60;;;;;;;5.38;100.00;92850.28;5035933;28;20038;-77
2023/12/29 20:33:54;;;;;;;5.38;2.75;;;;;;;5.38;100.00;92852.09;5033723;28;20041;-77
2023/12/29 20:36:20;;;;;;;4.80;2.63;;;;;;;5.36;100.00;92849.75;5038607;28;20041;-77
2023/12/29 20:38:50;;;;;;;4.35;2.80;;;;;;;5.36;100.00;92846.38;5042852;28;20176;-77
2023/12/29 20:41:19;;;;;;;4.72;2.50;;;;;;;5.32;100.00;92846.06;5030870;28;20615;-77
2023/12/29 20:43:47;;;;;;;3.85;2.35;;;;;;;5.29;100.00;92843.16;5035485;28;20087;-77
2023/12/29 20:46:13;;;;;;;5.75;3.20;;;;;;;5.31;100.00;92849.69;5042909;28;20531;-77
2023/12/29 20:48:39;;;;;;;7.15;3.33;;;;;;;5.33;100.00;92854.63;5051661;28;20037;-77
2023/12/29 20:51:05;;;;;;;6.65;3.47;;;;;;;5.29;100.00;92851.75;5039129;28;20044;-77
2023/12/29 20:53:31;;;;;;;6.80;3.80;;;;;;;5.30;100.00;92850.72;5029842;28;20392;-77
2023/12/29 20:55:56;;;;;;;5.78;3.30;;;;;;;5.29;100.00;92845.78;5038157;28;20044;-77
2023/12/29 20:58:23;;;;;;;5.07;3.00;;;;;;;5.30;100.00;92853.31;5031978;28;20052;-77
2023/12/29 21:00:50;;;;;;;5.35;3.47;;;;;;;5.31;100.00;92856.69;5038295;28;20493;-77
2023/12/29 21:03:15;;;;;;;5.32;3.40;;;;;;;5.32;100.00;92855.69;5046328;28;20044;-77
2023/12/29 21:05:41;;;;;;;5.38;3.70;;;;;;;5.29;100.00;92848.38;5042703;28;20037;-77
2023/12/29 21:08:06;;;;;;;6.30;3.55;;;;;;;5.28;100.00;92845.00;5042228;28;20036;-77
2023/12/29 21:10:32;;;;;;;5.18;3.25;;;;;;;5.28;100.00;92850.19;5036578;28;20037;-77
2023/12/29 21:12:57;;;;;;;5.63;2.78;;;;;;;5.26;100.00;92841.84;5049117;28;20033;-77
2023/12/29 21:15:24;;;;;;;8.60;3.63;;;;;;;5.26;100.00;92835.88;5043462;28;20049;-78
2023/12/29 21:17:49;;;;;;;7.65;3.63;;;;;;;5.26;100.00;92835.88;5051922;28;20112;-77
2023/12/29 21:20:15;;;;;;;7.07;3.88;;;;;;;5.26;100.00;92831.47;5052356;28;20556;-78
2023/12/29 21:22:43;;;;;;;7.45;3.53;;;;;;;5.26;100.00;92828.09;5052169;28;20408;-78
2023/12/29 21:25:08;;;;;;;6.63;3.03;;;;;;;5.26;100.00;92833.28;5050655;28;20043;-78
2023/12/29 21:27:34;;;;;;;5.15;2.78;;;;;;;5.26;100.00;92830.69;5051677;28;20029;-78
2023/12/29 21:30:00;;;;;;;6.00;3.00;;;;;;;5.21;100.00;92824.41;5051118;28;20028;-78
2023/12/29 21:32:29;;;;;;;8.35;4.30;;;;;;;5.27;100.00;92832.25;5051399;28;20029;-78
2023/12/29 21:34:58;;;;;;;8.10;4.50;;;;;;;5.20;100.00;92822.88;5051701;28;20250;-78
2023/12/29 21:37:25;;;;;;;6.93;4.57;;;;;;;5.22;100.00;92828.59;5052318;28;20098;-78
2023/12/29 21:39:51;;;;;;;7.45;4.72;;;;;;;5.21;100.00;92834.81;5051505;28;20041;-78
2023/12/29 21:42:17;;;;;;;10.35;5.30;;;;;;;5.20;100.00;92828.06;5052500;28;20484;-78
2023/12/29 21:44:44;;;;;;;10.88;4.75;;;;;;;5.20;100.00;92822.88;5051963;28;20223;-78
2023/12/29 21:47:09;;;;;;;8.98;4.00;;;;;;;5.27;100.00;92816.66;5051945;28;20027;-78
2023/12/29 21:49:39;;;;;;;10.57;5.78;;;;;;;5.31;100.00;92828.13;5051841;28;20412;-78
2023/12/29 21:52:05;;;;;;;11.02;5.90;;;;;;;5.30;100.00;92824.00;5051199;28;20037;-78
2023/12/29 21:54:30;;;;;;;10.30;5.88;;;;;;;5.21;100.00;92828.84;5051246;28;20040;-78
2023/12/29 21:56:59;;;;;;;8.43;4.75;;;;;;;5.17;100.00;92827.75;5051683;28;20025;-78
2023/12/29 21:59:25;;;;;;;12.70;7.13;;;;;;;5.12;100.00;92828.47;5050063;28;20041;-78
2023/12/29 22:01:53;;;;;;;8.90;5.40;;;;;;;5.02;100.00;92812.78;5051715;28;20408;-78
2023/12/29 22:04:19;;;;;;;9.50;5.35;;;;;;;5.05;100.00;92827.88;5051608;28;20029;-78
2023/12/29 22:06:45;;;;;;;12.10;5.60;;;;;;;5.05;100.00;92825.28;5051381;28;20439;-78
2023/12/29 22:09:11;;;;;;;9.60;5.57;;;;;;;5.01;100.00;92821.59;5051121;28;20079;-78
2023/12/29 22:11:37;;;;;;;10.02;5.47;;;;;;;5.06;100.00;92818.28;5051597;28;20140;-78
2023/12/29 22:14:04;;;;;;;8.60;5.05;;;;;;;5.04;100.00;92815.94;5050950;28;20039;-78
